Time;durP1;ratioP1;P1;durP2;ratioP2;P2;SDS_P1;SDS_P2;PMS_P1;PMS_P2;Temp;Humidity;BMP_temperature;BMP_pressure;BME280_temperature;BME280_humidity;BME280_pressure;Samples;Min_cycle;Max_cycle;Signal;HPM_P1;HPM_P2
2022/10/23 00:00:34;;;;;;;;;;;11.10;99.90;;;9.97;100.00;95912.13;10532426;28;1413;-73
2022/10/23 00:05:37;;;;;;;;;;;11.10;99.90;;;9.91;100.00;95918.56;10537375;28;789;-72
2022/10/23 00:10:40;;;;;;;;;;;11.00;99.90;;;9.86;100.00;95915.06;10533475;28;1676;-74
2022/10/23 00:15:43;;;;;;;;;;;10.90;99.90;;;9.74;100.00;95918.81;10536827;28;1975;-73
2022/10/23 00:20:46;;;;;;;;;;;10.90;99.90;;;9.73;100.00;95894.91;10529794;28;1620;-73
2022/10/23 00:25:49;;;;;;;;;;;10.80;99.90;;;9.69;100.00;95905.38;10535053;28;1110;-73
2022/10/23 00:30:51;;;;;;;;;;;10.80;99.90;;;9.62;100.00;95925.50;10529084;28;1703;-72
2022/10/23 00:35:57;;;;;;;;;;;10.70;99.90;;;9.57;100.00;95904.81;10535206;28;1906;-71
2022/10/23 00:40:59;;;;;;;;;;;10.70;99.90;;;9.54;100.00;95915.25;10536044;28;1601;-72
2022/10/23 00:46:03;;;;;;;;;;;10.60;99.90;;;9.45;100.00;95914.94;10528975;28;1636;-72
2022/10/23 00:51:06;;;;;;;;;;;10.60;99.90;;;9.40;100.00;95913.03;10535247;28;1153;-73
2022/10/23 00:56:09;;;;;;;;;;;10.50;99.90;;;9.38;100.00;95917.06;10527404;28;1918;-73
2022/10/23 01:01:12;;;;;;;;;;;10.50;99.90;;;9.27;100.00;95910.84;10535558;28;1504;-72
2022/10/23 01:06:15;;;;;;;;;;;10.50;99.90;;;9.19;100.00;95909.47;10539845;28;1710;-72
2022/10/23 01:11:17;;;;;;;;;;;10.40;99.90;;;9.20;100.00;95908.41;10541796;28;1249;-73
2022/10/23 01:16:20;;;;;;;;;;;10.30;99.90;;;9.14;100.00;95892.56;10540500;28;1913;-74
2022/10/23 01:21:23;;;;;;;;;;;10.20;99.90;;;9.07;100.00;95892.78;10542533;28;1128;-72
2022/10/23 01:26:26;;;;;;;;;;;10.20;99.90;;;9.11;100.00;95885.84;10539159;28;1644;-74
2022/10/23 01:31:28;;;;;;;;;;;10.30;99.90;;;9.06;100.00;95880.47;10528221;28;1727;-72
2022/10/23 01:36:31;;;;;;;;;;;10.20;99.90;;;9.12;100.00;95876.72;10541447;28;1921;-71
2022/10/23 01:41:34;;;;;;;;;;;10.20;99.90;;;9.04;100.00;95896.00;10537213;28;1676;-73
2022/10/23 01:46:37;;;;;;;;;;;10.20;99.90;;;9.01;100.00;95888.47;10541763;28;924;-73
2022/10/23 01:51:40;;;;;;;;;;;10.20;99.90;;;9.08;100.00;95881.00;10540182;28;1601;-73
2022/10/23 01:56:47;;;;;;;;;;;10.10;99.90;;;8.97;100.00;95874.00;10541301;28;1882;-72
2022/10/23 02:01:50;;;;;;;;;;;10.20;99.90;;;8.92;100.00;95873.97;10537507;28;1430;-72
2022/10/23 02:06:57;;;;;;;;;;;10.10;99.90;;;8.89;100.00;95861.88;10536753;28;1636;-73
2022/10/23 02:11:59;;;;;;;;;;;10.10;99.90;;;8.89;100.00;95856.50;10540484;28;1105;-72
2022/10/23 02:17:02;;;;;;;;;;;10.00;99.90;;;8.93;100.00;95840.72;10532255;28;1977;-73
2022/10/23 02:22:05;;;;;;;;;;;10.00;99.90;;;8.93;100.00;95844.19;10555786;28;1488;-72
2022/10/23 02:27:09;;;;;;;;;;;10.10;99.90;;;8.94;100.00;95836.97;10525284;28;1565;-73
2022/10/23 02:32:11;;;;;;;;;;;10.00;99.90;;;8.92;100.00;95833.75;10522117;28;1639;-72
2022/10/23 02:37:14;;;;;;;;;;;10.00;99.90;;;8.90;100.00;95825.13;10530561;28;1910;-71
2022/10/23 02:42:19;;;;;;;;;;;10.00;99.90;;;8.85;100.00;95820.59;10538691;28;1162;-73
2022/10/23 02:47:33;;;;;;;;;;;10.00;99.90;;;8.83;100.00;95816.53;10535362;28;1613;-73
2022/10/23 02:52:36;;;;;;;;;;;9.90;99.90;;;8.77;100.00;95807.66;10539309;28;1164;-73
2022/10/23 02:57:39;;;;;;;;;;;10.00;99.90;;;8.76;100.00;95815.97;10529714;28;1914;-72
2022/10/23 03:02:42;;;;;;;;;;;9.90;99.90;;;8.76;100.00;95813.28;10534483;28;1731;-72
2022/10/23 03:07:45;;;;;;;;;;;9.80;99.90;;;8.64;100.00;95818.84;10536591;28;1636;-71
2022/10/23 03:12:48;;;;;;;;;;;9.80;99.90;;;8.59;100.00;95818.84;10537337;28;1117;-72
2022/10/23 03:17:51;;;;;;;;;;;9.80;99.90;;;8.58;100.00;95809.97;10534135;28;1914;-72
2022/10/23 03:22:53;;;;;;;;;;;9.70;99.90;;;8.60;100.00;95807.84;10536527;28;782;-73
2022/10/23 03:27:56;;;;;;;;;;;9.60;99.90;;;8.71;100.00;95797.97;10521426;28;1715;-72
2022/10/23 03:32:59;;;;;;;;;;;9.70;99.90;;;8.63;100.00;95787.75;10533350;28;1367;-77
2022/10/23 03:38:01;;;;;;;;;;;9.70;99.90;;;8.56;100.00;95787.19;10536965;28;1913;-73
2022/10/23 03:43:04;;;;;;;;;;;9.70;99.90;;;8.49;100.00;95800.03;10545985;28;1132;-75
2022/10/23 03:48:07;;;;;;;;;;;9.60;99.90;;;8.41;100.00;95793.28;10533547;28;1687;-74
2022/10/23 03:53:10;;;;;;;;;;;9.60;99.90;;;8.37;100.00;95798.34;10533255;28;1699;-72
2022/10/23 03:58:13;;;;;;;;;;;9.60;99.90;;;8.30;100.00;95789.69;10501753;28;1914;-72
2022/10/23 04:03:16;;;;;;;;;;;9.40;99.90;;;8.32;100.00;95792.09;10535765;28;1181;-73
2022/10/23 04:08:19;;;;;;;;;;;9.40;99.90;;;8.27;100.00;95803.63;10530555;28;1705;-73
2022/10/23 04:13:21;;;;;;;;;;;9.40;99.90;;;8.28;100.00;95789.16;10535694;28;1031;-73
2022/10/23 04:18:24;;;;;;;;;;;9.30;99.90;;;8.28;100.00;95793.72;10527629;28;1942;-73
2022/10/23 04:23:27;;;;;;;;;;;9.40;99.90;;;8.22;100.00;95800.09;10528549;28;1632;-73
2022/10/23 04:28:30;;;;;;;;;;;9.30;99.90;;;8.26;100.00;95791.25;10531218;28;1541;-72
2022/10/23 04:33:34;;;;;;;;;;;9.30;99.90;;;8.34;100.00;95781.97;10534612;28;1174;-72
2022/10/23 04:38:37;;;;;;;;;;;9.40;99.90;;;8.31;100.00;95801.22;10533907;28;1910;-73
2022/10/23 04:43:39;;;;;;;;;;;9.40;99.90;;;8.38;100.00;95789.22;10534185;28;1284;-73
2022/10/23 04:48:42;;;;;;;;;;;9.40;99.90;;;8.39;100.00;95787.34;10526955;28;1668;-73
2022/10/23 04:53:45;;;;;;;;;;;9.40;99.90;;;8.42;100.00;95784.19;10534886;28;1062;-71
2022/10/23 04:58:48;;;;;;;;;;;9.50;99.90;;;8.40;100.00;95786.31;10532960;28;1976;-72
2022/10/23 05:03:52;;;;;;;;;;;9.50;99.90;;;8.36;100.00;95769.94;10534967;28;1106;-73
2022/10/23 05:08:55;;;;;;;;;;;9.40;99.90;;;8.36;100.00;95779.84;10534031;28;1699;-73
2022/10/23 05:13:58;;;;;;;;;;;9.30;99.90;;;8.29;100.00;95764.00;10533579;28;1577;-72
2022/10/23 05:19:01;;;;;;;;;;;9.40;99.90;;;8.26;100.00;95761.00;10529953;28;1894;-73
2022/10/23 05:24:04;;;;;;;;;;;9.40;99.90;;;8.22;100.00;95768.75;10534087;28;943;-72
2022/10/23 05:29:07;;;;;;;;;;;9.30;99.90;;;8.17;100.00;95760.69;10516886;28;1584;-73
2022/10/23 05:34:13;;;;;;;;;;;9.20;99.90;;;8.12;100.00;95753.44;10534057;28;1164;-73
2022/10/23 05:39:16;;;;;;;;;;;9.20;99.90;;;8.18;100.00;95750.78;10527519;28;2037;-72
2022/10/23 05:44:19;;;;;;;;;;;9.20;99.90;;;8.18;100.00;95740.06;10533166;28;1229;-71
2022/10/23 05:49:22;;;;;;;;;;;9.30;99.90;;;8.18;100.00;95742.75;10532921;28;1671;-73
2022/10/23 05:54:25;;;;;;;;;;;9.20;99.90;;;8.28;100.00;95745.50;10540564;28;1794;-71
2022/10/23 05:59:27;;;;;;;;;;;9.20;99.90;;;8.20;100.00;95740.63;10535049;28;1921;-73
2022/10/23 06:04:30;;;;;;;;;;;9.30;99.90;;;8.24;100.00;95749.75;10540301;28;1204;-73
2022/10/23 06:09:33;;;;;;;;;;;9.20;99.90;;;8.36;100.00;95761.09;10535797;28;1640;-75
2022/10/23 06:14:36;;;;;;;;;;;9.30;99.90;;;8.39;100.00;95773.97;10539765;28;1098;-73
2022/10/23 06:19:39;;;;;;;;;;;9.50;99.90;;;8.36;100.00;95769.16;10538514;28;1913;-74
2022/10/23 06:24:42;;;;;;;;;;;9.40;99.90;;;8.51;100.00;95760.38;10539827;28;1011;-71
2022/10/23 06:29:45;;;;;;;;;;;9.50;99.90;;;8.65;100.00;95756.97;10528027;28;1616;-73
2022/10/23 06:34:48;;;;;;;;;;;9.50;99.90;;;8.71;100.00;95752.41;10539290;28;1156;-71
2022/10/23 06:39:50;;;;;;;;;;;9.70;99.90;;;8.81;100.00;95751.66;10534083;28;1922;-72
2022/10/23 06:44:53;;;;;;;;;;;9.70;99.90;;;8.90;100.00;95761.59;10540078;28;1165;-74
2022/10/23 06:49:56;;;;;;;;;;;9.80;99.90;;;8.82;100.00;95761.31;10537590;28;1655;-73
2022/10/23 06:54:59;;;;;;;;;;;9.80;99.90;;;8.96;100.00;95746.34;10541581;28;1199;-75
2022/10/23 07:00:02;;;;;;;;;;;9.90;99.90;;;9.02;100.00;95761.38;10527598;28;1976;-76
2022/10/23 07:05:09;;;;;;;;;;;9.90;99.90;;;9.18;100.00;95771.09;10538636;28;1195;-74
2022/10/23 07:10:15;;;;;;;;;;;9.90;99.90;;;9.31;100.00;95774.34;10535965;28;1640;-73
2022/10/23 07:15:18;;;;;;;;;;;10.20;99.90;;;9.66;100.00;95769.00;10537898;28;1981;-73
2022/10/23 07:20:21;;;;;;;;;;;10.30;99.90;;;9.80;100.00;95760.41;10536500;28;1671;-73
2022/10/23 07:25:23;;;;;;;;;;;10.50;99.90;;;9.98;100.00;95754.50;10531594;28;1683;-71
2022/10/23 07:30:26;;;;;;;;;;;10.70;99.90;;;9.97;100.00;95734.91;10524542;28;1505;-71
2022/10/23 07:35:31;;;;;;;;;;;10.80;99.90;;;9.97;100.00;95734.09;10537152;28;1910;-72
2022/10/23 07:40:38;;;;;;;;;;;10.90;99.90;;;10.20;100.00;95736.22;10531207;28;1612;-73
2022/10/23 07:45:41;;;;;;;;;;;10.90;99.90;;;10.35;100.00;95751.53;10534110;28;1620;-72
2022/10/23 07:50:44;;;;;;;;;;;11.10;99.90;;;10.54;100.00;95760.63;10531454;28;1193;-72
2022/10/23 07:55:46;;;;;;;;;;;11.20;99.90;;;10.81;100.00;95744.16;10529017;28;1980;-73
2022/10/23 08:00:52;;;;;;;;;;;11.50;99.90;;;10.90;100.00;95738.97;10532227;28;1489;-72
2022/10/23 08:05:55;;;;;;;;;;;11.60;99.90;;;11.27;100.00;95729.66;10535695;28;991;-73
2022/10/23 08:10:58;;;;;;;;;;;11.80;99.90;;;11.45;100.00;95728.16;10527385;28;1651;-71
2022/10/23 08:16:01;;;;;;;;;;;12.00;99.90;;;11.76;100.00;95726.84;10530375;28;1913;-72
2022/10/23 08:21:04;;;;;;;;;;;12.30;99.90;;;12.11;100.00;95717.69;10533057;28;1066;-72
2022/10/23 08:26:07;;;;;;;;;;;12.60;99.90;;;12.36;100.00;95719.31;10534053;28;1687;-72
2022/10/23 08:31:10;;;;;;;;;;;12.90;99.90;;;12.77;100.00;95716.16;10523617;28;1497;-74
2022/10/23 08:36:13;;;;;;;;;;;13.20;99.90;;;12.99;100.00;95708.34;10529621;28;1909;-72
2022/10/23 08:41:16;;;;;;;;;;;13.50;99.90;;;13.31;100.00;95712.25;10534482;28;1122;-73
2022/10/23 08:46:18;;;;;;;;;;;13.80;99.90;;;13.60;100.00;95713.97;10534203;28;1633;-72
2022/10/23 08:51:21;;;;;;;;;;;14.10;99.90;;;13.63;100.00;95710.69;10533334;28;1707;-71
2022/10/23 08:56:25;;;;;;;;;;;14.30;99.90;;;14.13;100.00;95702.84;10535102;28;1977;-73
2022/10/23 09:01:28;;;;;;;;;;;14.50;99.90;;;14.50;100.00;95691.06;10532741;28;1671;-71
2022/10/23 09:06:31;;;;;;;;;;;14.90;99.90;;;14.44;100.00;95673.31;10535154;28;817;-73
2022/10/23 09:11:34;;;;;;;;;;;15.10;99.90;;;14.76;100.00;95675.13;10529738;28;1636;-76
2022/10/23 09:16:37;;;;;;;;;;;15.30;99.90;;;14.91;100.00;95671.31;10525777;28;1944;-74
2022/10/23 09:21:40;;;;;;;;;;;15.50;99.90;;;14.98;100.00;95663.59;10540779;28;1136;-73
2022/10/23 09:26:47;;;;;;;;;;;15.60;99.90;;;15.05;100.00;95670.19;10537894;28;1648;-74
2022/10/23 09:31:52;;;;;;;;;;;15.70;99.90;;;15.12;100.00;95659.72;10529678;28;1724;-72
2022/10/23 09:36:55;;;;;;;;;;;15.80;99.90;;;15.33;100.00;95654.69;10541813;28;1906;-72
2022/10/23 09:41:58;;;;;;;;;;;15.90;99.90;;;15.61;100.00;95670.81;10544181;28;1090;-73
2022/10/23 09:47:01;;;;;;;;;;;16.20;99.90;;;16.05;100.00;95672.72;10539186;28;1548;-74
2022/10/23 09:52:04;;;;;;;;;;;16.50;99.90;;;16.17;100.00;95642.31;10541833;28;1161;-71
2022/10/23 09:57:07;;;;;;;;;;;16.70;99.90;;;16.27;100.00;95641.25;10533589;28;1918;-72
2022/10/23 10:02:10;;;;;;;;;;;16.80;99.90;;;16.57;100.00;95634.19;10537348;28;1501;-73
2022/10/23 10:07:13;;;;;;;;;;;17.00;99.90;;;16.45;100.00;95634.78;10540417;28;1664;-71
2022/10/23 10:12:17;;;;;;;;;;;17.20;99.90;;;16.75;100.00;95630.44;10540141;28;1078;-75
2022/10/23 10:17:20;;;;;;;;;;;17.40;99.90;;;16.76;100.00;95626.59;10535337;28;1966;-78
2022/10/23 10:22:23;;;;;;;;;;;17.40;99.90;;;16.83;100.00;95632.34;10540759;28;871;-73
2022/10/23 10:27:26;;;;;;;;;;;17.20;99.90;;;16.87;100.00;95627.91;10523990;28;1600;-73
2022/10/23 10:32:31;;;;;;;;;;;17.50;99.90;;;16.94;100.00;95628.22;10533383;28;1635;-73
2022/10/23 10:37:35;;;;;;;;;;;17.60;99.90;;;16.96;100.00;95611.59;10539247;28;1906;-73
2022/10/23 10:42:37;;;;;;;;;;;17.70;99.90;;;16.89;100.00;95611.28;10533803;28;1142;-73
2022/10/23 10:47:40;;;;;;;;;;;17.80;99.90;;;17.13;100.00;95606.19;10522434;28;1689;-73
2022/10/23 10:52:43;;;;;;;;;;;17.80;99.90;;;17.41;100.00;95586.84;10539515;28;1093;-73
2022/10/23 10:57:51;;;;;;;;;;;17.90;99.90;;;17.36;100.00;95576.94;10527291;28;1906;-73
2022/10/23 11:02:53;;;;;;;;;;;18.10;99.90;;;17.51;100.00;95575.66;10535069;28;1063;-71
2022/10/23 11:07:56;;;;;;;;;;;18.20;99.90;;;17.54;100.00;95569.56;10534820;28;1580;-71
2022/10/23 11:12:59;;;;;;;;;;;18.30;99.90;;;17.69;100.00;95560.13;10538194;28;1133;-72
2022/10/23 11:18:02;;;;;;;;;;;18.40;99.90;;;17.94;100.00;95556.56;10532940;28;1985;-73
2022/10/23 11:23:04;;;;;;;;;;;18.50;99.90;;;17.96;100.00;95542.63;10538352;28;1167;-71
2022/10/23 11:28:07;;;;;;;;;;;18.70;99.90;;;18.15;100.00;95539.50;10521848;28;1667;-72
2022/10/23 11:33:12;;;;;;;;;;;18.80;99.90;;;18.60;96.99;95540.53;10536907;28;1224;-72
2022/10/23 11:38:15;;;;;;;;;;;19.00;99.90;;;18.77;96.26;95542.38;10528887;28;1976;-72
2022/10/23 11:43:18;;;;;;;;;;;19.30;99.90;;;19.14;93.79;95531.66;10536392;28;1788;-72
2022/10/23 11:48:20;;;;;;;;;;;19.60;99.90;;;19.36;91.94;95538.69;10528590;28;1731;-72
2022/10/23 11:53:23;;;;;;;;;;;19.80;99.90;;;19.14;91.62;95515.28;10536656;28;1386;-73
2022/10/23 11:58:30;;;;;;;;;;;19.90;99.90;;;19.14;91.61;95504.41;10530023;28;1906;-73
2022/10/23 12:03:34;;;;;;;;;;;19.80;99.90;;;19.38;87.80;95512.66;10547855;28;1241;-73
2022/10/23 12:08:37;;;;;;;;;;;19.90;99.90;;;19.82;85.11;95512.25;10536745;28;1655;-74
2022/10/23 12:13:41;;;;;;;;;;;20.20;99.90;;;20.07;81.77;95507.59;10541019;28;1572;-73
2022/10/23 12:18:44;;;;;;;;;;;20.50;99.90;;;19.97;81.22;95498.72;10534622;28;1902;-73
2022/10/23 12:23:48;;;;;;;;;;;20.60;99.90;;;19.81;80.99;95499.75;10539606;28;1153;-72
2022/10/23 12:28:51;;;;;;;;;;;20.50;99.90;;;19.89;79.51;95486.00;10520302;28;1577;-72
2022/10/23 12:33:55;;;;;;;;;;;20.50;99.90;;;20.03;80.30;95490.31;10534296;28;1529;-72
2022/10/23 12:38:58;;;;;;;;;;;20.70;99.90;;;19.95;79.16;95476.44;10535817;28;1930;-73
2022/10/23 12:44:02;;;;;;;;;;;20.70;99.90;;;20.08;82.15;95477.25;10537905;28;1148;-73
2022/10/23 12:49:05;;;;;;;;;;;20.70;99.90;;;20.13;87.09;95462.59;10537607;28;1644;-73
2022/10/23 12:54:14;;;;;;;;;;;20.80;99.90;;;20.10;88.96;95464.03;10538475;28;1535;-74
2022/10/23 12:59:17;;;;;;;;;;;20.90;99.90;;;20.36;88.84;95450.06;10539330;28;1910;-73
2022/10/23 13:04:21;;;;;;;;;;;20.90;99.90;;;20.23;91.01;95456.66;10544461;28;1094;-72
2022/10/23 13:09:25;;;;;;;;;;;21.00;99.90;;;20.12;93.03;95458.28;10538956;28;1640;-72
2022/10/23 13:14:29;;;;;;;;;;;21.00;99.90;;;20.15;93.45;95452.13;10542169;28;1659;-73
2022/10/23 13:19:33;;;;;;;;;;;21.00;99.90;;;20.33;92.92;95442.53;10541739;28;1973;-72
2022/10/23 13:24:36;;;;;;;;;;;20.90;99.90;;;20.24;89.36;95445.41;10533837;28;1612;-71
2022/10/23 13:29:40;;;;;;;;;;;21.00;99.90;;;20.10;91.00;95438.69;10538977;28;1494;-72
2022/10/23 13:34:43;;;;;;;;;;;21.00;99.90;;;20.01;92.74;95438.81;10543203;28;1367;-73
2022/10/23 13:40:06;;;;;;;;;;;20.90;99.90;;;20.05;92.20;95439.75;10535215;28;1914;-72
2022/10/23 13:45:09;;;;;;;;;;;20.80;99.90;;;19.81;93.70;95424.16;10543955;28;1124;-74
2022/10/23 13:50:13;;;;;;;;;;;20.70;99.90;;;19.58;95.78;95436.63;10525760;28;1675;-73
2022/10/23 13:55:16;;;;;;;;;;;20.50;99.90;;;19.55;96.75;95421.75;10541078;28;1360;-75
2022/10/23 14:00:20;;;;;;;;;;;20.30;99.90;;;19.38;98.78;95427.38;10537160;28;1914;-73
2022/10/23 14:05:25;;;;;;;;;;;20.20;99.90;;;19.25;100.00;95439.38;10541674;28;1205;-74
2022/10/23 14:10:28;;;;;;;;;;;20.10;99.90;;;19.15;100.00;95427.81;10539069;28;1715;-74
2022/10/23 14:15:32;;;;;;;;;;;20.00;99.90;;;19.13;100.00;95426.53;10541763;28;873;-73
2022/10/23 14:20:35;;;;;;;;;;;19.90;99.90;;;19.01;100.00;95434.66;10524716;28;1976;-74
2022/10/23 14:25:38;;;;;;;;;;;19.90;99.90;;;18.95;100.00;95433.28;10536879;28;1651;-73
2022/10/23 14:30:44;;;;;;;;;;;19.80;99.90;;;18.91;100.00;95425.00;10552828;28;1608;-74
2022/10/23 14:35:47;;;;;;;;;;;19.80;99.90;;;18.82;100.00;95416.88;10540598;28;1191;-75
2022/10/23 14:40:50;;;;;;;;;;;19.60;99.90;;;18.66;100.00;95413.19;10534841;28;1977;-73
2022/10/23 14:45:53;;;;;;;;;;;19.50;99.90;;;18.63;100.00;95419.28;10535886;28;1687;-72
2022/10/23 14:50:56;;;;;;;;;;;19.50;99.90;;;18.61;100.00;95422.34;10536287;28;1206;-72
2022/10/23 14:56:00;;;;;;;;;;;19.50;99.90;;;18.50;100.00;95409.44;10537396;28;1429;-71
2022/10/23 15:01:03;;;;;;;;;;;19.40;99.90;;;18.40;100.00;95404.44;10538142;28;1993;-71
2022/10/23 15:06:07;;;;;;;;;;;19.30;99.90;;;18.32;100.00;95398.72;10537980;28;1633;-73
2022/10/23 15:11:10;;;;;;;;;;;19.20;99.90;;;18.22;100.00;95406.47;10532146;28;1821;-72
2022/10/23 15:16:14;;;;;;;;;;;19.10;99.90;;;18.13;100.00;95401.06;10538471;28;1331;-71
2022/10/23 15:21:18;;;;;;;;;;;19.00;99.90;;;17.91;100.00;95396.75;10535585;28;1981;-73
2022/10/23 15:26:24;;;;;;;;;;;18.90;99.90;;;17.83;100.00;95394.88;10535846;28;1616;-74
2022/10/23 15:31:27;;;;;;;;;;;18.80;99.90;;;17.75;100.00;95385.66;10529937;28;1493;-73
2022/10/23 15:36:31;;;;;;;;;;;18.70;99.90;;;17.67;100.00;95389.16;10541630;28;1409;-72
2022/10/23 15:41:34;;;;;;;;;;;18.60;99.90;;;17.56;100.00;95390.69;10534930;28;1909;-72
2022/10/23 15:46:37;;;;;;;;;;;18.50;99.90;;;17.61;100.00;95385.03;10541691;28;1684;-73
2022/10/23 15:51:41;;;;;;;;;;;18.50;99.90;;;17.41;100.00;95377.63;10542318;28;1121;-72
2022/10/23 15:56:44;;;;;;;;;;;18.30;99.90;;;17.23;100.00;95369.53;10538580;28;1468;-72
2022/10/23 16:01:48;;;;;;;;;;;18.30;99.90;;;17.17;100.00;95370.03;10536024;28;1913;-74
2022/10/23 16:06:51;;;;;;;;;;;18.10;99.90;;;17.11;100.00;95377.56;10532940;28;1652;-72
2022/10/23 16:11:54;;;;;;;;;;;18.00;99.90;;;16.98;100.00;95378.56;10538970;28;1163;-73
2022/10/23 16:16:58;;;;;;;;;;;17.90;99.90;;;16.84;100.00;95369.81;10534510;28;1819;-73
2022/10/23 16:22:01;;;;;;;;;;;17.80;99.90;;;16.68;100.00;95370.31;10539035;28;1917;-73
2022/10/23 16:27:05;;;;;;;;;;;17.60;99.90;;;16.53;100.00;95362.66;10523362;28;1663;-73
2022/10/23 16:32:09;;;;;;;;;;;17.50;99.90;;;16.51;100.00;95353.25;10528145;28;1731;-73
2022/10/23 16:37:12;;;;;;;;;;;17.40;99.90;;;16.36;100.00;95363.50;10532817;28;1600;-72
2022/10/23 16:42:15;;;;;;;;;;;17.40;99.90;;;16.32;100.00;95367.16;10535368;28;1905;-72
2022/10/23 16:47:19;;;;;;;;;;;17.30;99.90;;;16.14;100.00;95350.88;10530190;28;1698;-74
2022/10/23 16:52:23;;;;;;;;;;;17.10;99.90;;;16.17;100.00;95360.31;10538261;28;1539;-73
2022/10/23 16:57:26;;;;;;;;;;;17.10;99.90;;;16.01;100.00;95367.31;10532731;28;1517;-74
2022/10/23 17:02:30;;;;;;;;;;;17.00;99.90;;;15.86;100.00;95369.38;10533260;28;1918;-74
2022/10/23 17:07:34;;;;;;;;;;;16.90;99.90;;;15.83;100.00;95371.91;10550110;28;1687;-73
2022/10/23 17:12:38;;;;;;;;;;;16.80;99.90;;;15.57;100.00;95380.72;10534785;28;1187;-73
2022/10/23 17:17:41;;;;;;;;;;;16.60;99.90;;;15.58;100.00;95392.38;10533792;28;1679;-73
2022/10/23 17:22:45;;;;;;;;;;;16.50;99.90;;;15.63;100.00;95384.13;10535175;28;1914;-73
2022/10/23 17:27:50;;;;;;;;;;;16.50;99.90;;;15.53;100.00;95406.06;10513396;28;1636;-73
2022/10/23 17:32:54;;;;;;;;;;;16.50;99.90;;;15.44;100.00;95403.31;10531103;28;971;-72
2022/10/23 17:38:04;;;;;;;;;;;16.30;99.90;;;15.53;100.00;95390.63;10529428;28;1914;-75
2022/10/23 17:43:07;;;;;;;;;;;16.40;99.90;;;15.48;100.00;95415.13;10538394;28;2144;-74
2022/10/23 17:48:11;;;;;;;;;;;16.30;99.90;;;15.57;100.00;95407.81;10550677;28;1624;-74
2022/10/23 17:53:14;;;;;;;;;;;16.30;99.90;;;15.57;100.00;95401.59;10541564;28;1310;-73
2022/10/23 17:58:18;;;;;;;;;;;16.40;99.90;;;15.77;100.00;95400.25;10529835;28;1969;-74
2022/10/23 18:03:22;;;;;;;;;;;16.50;99.90;;;15.81;100.00;95398.53;10534627;28;1169;-73
2022/10/23 18:08:25;;;;;;;;;;;16.50;99.90;;;15.77;100.00;95386.72;10529691;28;1628;-73
2022/10/23 18:13:29;;;;;;;;;;;16.50;99.90;;;15.55;100.00;95406.56;10559168;28;1119;-72
2022/10/23 18:18:36;;;;;;;;;;;16.40;99.90;;;15.37;100.00;95416.53;10536151;28;1902;-72
2022/10/23 18:23:39;;;;;;;;;;;16.40;99.90;;;15.37;100.00;95433.56;10541638;28;1101;-72
2022/10/23 18:28:42;;;;;;;;;;;16.20;99.90;;;15.40;100.00;95422.13;10531413;28;1434;-72
2022/10/23 18:33:45;;;;;;;;;;;16.20;99.90;;;15.28;100.00;95431.94;10539841;28;1145;-72
2022/10/23 18:38:48;;;;;;;;;;;16.20;99.90;;;15.15;100.00;95398.44;10537193;28;2577;-71
2022/10/23 18:43:51;;;;;;;;;;;16.00;99.90;;;15.04;100.00;95435.78;10540020;28;1042;-73
2022/10/23 18:48:54;;;;;;;;;;;16.00;99.90;;;14.73;100.00;95432.25;10535131;28;1747;-73
2022/10/23 18:53:57;;;;;;;;;;;15.90;99.90;;;14.59;100.00;95443.94;10539379;28;1243;-73
2022/10/23 18:59:03;;;;;;;;;;;15.70;99.90;;;14.40;100.00;95431.66;10537574;28;1890;-73
2022/10/23 19:04:06;;;;;;;;;;;15.50;99.90;;;14.23;100.00;95424.19;10540258;28;1193;-73
2022/10/23 19:09:09;;;;;;;;;;;15.30;99.90;;;14.18;100.00;95422.38;10537203;28;1679;-74
2022/10/23 19:14:12;;;;;;;;;;;15.20;99.90;;;14.26;100.00;95431.69;10538260;28;1628;-71
2022/10/23 19:19:15;;;;;;;;;;;15.10;99.90;;;14.15;100.00;95433.81;10539419;28;1989;-73
2022/10/23 19:24:18;;;;;;;;;;;15.10;99.90;;;14.01;100.00;95446.56;10530496;28;1671;-71
2022/10/23 19:29:21;;;;;;;;;;;15.10;99.90;;;14.01;100.00;95441.97;10534534;28;1478;-74
2022/10/23 19:34:23;;;;;;;;;;;15.00;99.90;;;13.91;100.00;95434.06;10538035;28;1183;-72
2022/10/23 19:39:26;;;;;;;;;;;15.00;99.90;;;13.97;100.00;95454.47;10530851;28;1973;-72
2022/10/23 19:44:29;;;;;;;;;;;14.90;99.90;;;14.07;100.00;95443.47;10534172;28;1668;-72
2022/10/23 19:49:32;;;;;;;;;;;14.90;99.90;;;14.19;100.00;95445.63;10537413;28;1291;-74
2022/10/23 19:54:36;;;;;;;;;;;14.90;99.90;;;14.30;100.00;95446.19;10533444;28;1683;-73
2022/10/23 19:59:39;;;;;;;;;;;15.00;99.90;;;14.44;100.00;95446.97;10525456;28;1926;-72
2022/10/23 20:04:42;;;;;;;;;;;15.20;99.90;;;14.43;100.00;95442.66;10535888;28;1134;-72
2022/10/23 20:09:45;;;;;;;;;;;15.20;99.90;;;14.53;100.00;95444.34;10529741;28;1711;-72
2022/10/23 20:14:48;;;;;;;;;;;15.30;99.90;;;14.51;100.00;95447.38;10536669;28;1075;-75
2022/10/23 20:19:52;;;;;;;;;;;15.30;99.90;;;14.53;100.00;95437.03;10530339;28;1987;-74
2022/10/23 20:24:55;;;;;;;;;;;15.30;99.90;;;14.63;100.00;95437.88;10535257;28;1180;-73
2022/10/23 20:29:58;;;;;;;;;;;15.40;99.90;;;14.63;100.00;95446.00;10531164;28;1565;-73
2022/10/23 20:35:01;;;;;;;;;;;15.40;99.90;;;14.77;100.00;95455.69;10535514;28;1153;-73
2022/10/23 20:40:04;;;;;;;;;;;15.40;99.90;;;14.80;100.00;95465.88;10532359;28;1906;-72
2022/10/23 20:45:07;;;;;;;;;;;15.50;99.90;;;14.87;100.00;95476.28;10534816;28;852;-73
2022/10/23 20:50:09;;;;;;;;;;;15.50;99.90;;;14.88;100.00;95494.09;10525915;28;1662;-74
2022/10/23 20:55:12;;;;;;;;;;;15.60;99.90;;;14.91;100.00;95530.59;10532365;28;1442;-73
2022/10/23 21:00:15;;;;;;;;;;;15.60;99.90;;;15.11;100.00;95536.31;10531688;28;1965;-72
2022/10/23 21:05:19;;;;;;;;;;;15.80;99.90;;;15.12;100.00;95548.72;10535300;28;1183;-72
2022/10/23 21:10:21;;;;;;;;;;;15.90;99.90;;;15.08;100.00;95585.66;10534974;28;1615;-71
2022/10/23 21:15:24;;;;;;;;;;;16.10;99.90;;;14.83;100.00;95603.28;10536752;28;1635;-75
2022/10/23 21:20:27;;;;;;;;;;;15.80;99.90;;;14.79;100.00;95601.47;10545231;28;1970;-73
2022/10/23 21:25:30;;;;;;;;;;;15.70;99.90;;;14.70;100.00;95611.44;10535590;28;1815;-74
2022/10/23 21:30:32;;;;;;;;;;;15.60;99.90;;;14.60;100.00;95605.13;10539169;28;1508;-74
2022/10/23 21:35:35;;;;;;;;;;;15.50;99.90;;;14.41;100.00;95601.72;10542779;28;1173;-74
2022/10/23 21:40:54;;;;;;;;;;;15.50;99.90;;;14.23;100.00;95618.84;10536277;28;1901;-75
2022/10/23 21:45:56;;;;;;;;;;;15.30;99.90;;;14.29;100.00;95636.56;10540348;28;1692;-74
2022/10/23 21:51:00;;;;;;;;;;;15.40;99.90;;;14.24;100.00;95648.25;10538784;28;1181;-73
2022/10/23 21:56:03;;;;;;;;;;;15.30;99.90;;;14.34;100.00;95663.50;10533859;28;1707;-72
2022/10/23 22:01:06;;;;;;;;;;;15.20;99.90;;;14.48;100.00;95656.22;10574509;27;1918;-73
2022/10/23 22:06:09;;;;;;;;;;;15.30;99.90;;;14.51;100.00;95674.56;10538054;28;1687;-73
2022/10/23 22:11:13;;;;;;;;;;;15.40;99.90;;;14.62;100.00;95679.75;10541204;28;1149;-74
2022/10/23 22:16:16;;;;;;;;;;;15.40;99.90;;;14.63;100.00;95684.84;10536841;28;1564;-73
2022/10/23 22:21:19;;;;;;;;;;;15.50;99.90;;;14.80;100.00;95684.25;10532839;28;1991;-74
2022/10/23 22:26:22;;;;;;;;;;;15.60;99.90;;;15.06;100.00;95690.72;10534811;28;1719;-73
2022/10/23 22:31:25;;;;;;;;;;;15.70;99.90;;;15.28;100.00;95692.69;10536437;28;1632;-74
2022/10/23 22:36:27;;;;;;;;;;;15.90;99.90;;;15.38;100.00;95702.50;10538514;28;1287;-75
2022/10/23 22:41:30;;;;;;;;;;;16.10;99.90;;;15.23;100.00;95710.97;10540117;28;1879;-74
2022/10/23 22:46:33;;;;;;;;;;;16.10;99.90;;;15.14;100.00;95709.00;10538937;28;1561;-74
2022/10/23 22:51:36;;;;;;;;;;;16.10;99.90;;;15.19;100.00;95707.25;10533272;28;1035;-73
2022/10/23 22:56:39;;;;;;;;;;;16.00;99.90;;;15.26;100.00;95719.25;10538722;28;1513;-75
2022/10/23 23:01:41;;;;;;;;;;;16.10;99.90;;;15.28;100.00;95729.81;10535512;28;1910;-74
2022/10/23 23:06:54;;;;;;;;;;;16.10;99.90;;;15.20;100.00;95728.59;10536915;28;1631;-74